Ise Maru — JG5743 — position and weather

sailwx.info

Track history (hours):
 
Tides and Currents Weather Stations Pressure Air Temp Water Temp Dewpoint Dewpoint Depression Visibility Wind Speed Wind Dir Waves Ship Positions

Ise Maru

Last reported at 2018-Jun-21 02:28 UTC. Time now 2018-Jun-21 02:40 UTC.
Position N 35°27' E 139°42'.

Length 34 m; draft 3.5 m.

Type: Tug. MMSI: 431101046.

Date/timePositionNaut miles runAvg speedWind from/ knotsBaromVisibWave heightAir tempDewpointWater temp
2018-Jun-21 02:28N 35°27' E 139°42'4 9.2
2018-Jun-21 02:00N 35°23' E 139°41'2 3.9
2018-Jun-21 01:30N 35°25' E 139°39'0 0.6
2018-Jun-21 01:01N 35°24' E 139°39'2 4.1
2018-Jun-21 00:30N 35°23' E 139°41'1 1.3
2018-Jun-21 00:00N 35°23' E 139°40'3 5.5
2018-Jun-20 23:30N 35°23' E 139°44'612.5
2018-Jun-20 23:00N 35°26' E 139°51'3 0.2
2018-Jun-20 06:51N 35°24' E 139°48'412.7
2018-Jun-20 06:30N 35°23' E 139°43'3 5.7
2018-Jun-20 06:00N 35°24' E 139°40'1 1.6
2018-Jun-20 05:30N 35°24' E 139°39'0 1.0
2018-Jun-20 05:00N 35°24' E 139°38'0 0.8
2018-Jun-20 04:30N 35°24' E 139°38'0 0.2
2018-Jun-20 04:00N 35°24' E 139°38'0 0.1
2018-Jun-20 03:30N 35°24' E 139°38'0 0.1
2018-Jun-20 03:00N 35°24' E 139°38'0 0.1
2018-Jun-20 02:30N 35°24' E 139°38'0 0.2
2018-Jun-20 02:00N 35°24' E 139°38'0 0.0
2018-Jun-20 01:30N 35°24' E 139°38'0 0.1
2018-Jun-20 01:00N 35°24' E 139°38'0 0.0
2018-Jun-20 00:31N 35°24' E 139°38'0 0.0
2018-Jun-20 00:00N 35°24' E 139°38'0 0.1
2018-Jun-19 23:30N 35°24' E 139°38'0 0.0
2018-Jun-19 23:00N 35°24' E 139°38'0 0.1
2018-Jun-19 22:30N 35°24' E 139°38'0 0.2
2018-Jun-19 22:00N 35°24' E 139°38'0 0.1
2018-Jun-19 21:31N 35°24' E 139°38'0 0.2
2018-Jun-19 21:00N 35°24' E 139°38'0 0.1
2018-Jun-19 20:30N 35°24' E 139°38'0 0.2
2018-Jun-19 20:00N 35°24' E 139°38'0 0.1
2018-Jun-19 19:30N 35°24' E 139°38'0 0.0
2018-Jun-19 19:00N 35°24' E 139°38'0 0.1
2018-Jun-19 18:30N 35°24' E 139°38'0 0.1
2018-Jun-19 17:59N 35°24' E 139°38'0 0.1
2018-Jun-19 17:30N 35°24' E 139°38'0 0.1
2018-Jun-19 17:00N 35°24' E 139°38'0 0.1
2018-Jun-19 16:30N 35°24' E 139°38'0 0.2
2018-Jun-19 16:00N 35°24' E 139°38'0 0.1
2018-Jun-19 15:30N 35°24' E 139°38'0 0.1
2018-Jun-19 15:00N 35°24' E 139°38'0 0.1
2018-Jun-19 14:30N 35°24' E 139°38'0 0.1
2018-Jun-19 14:00N 35°24' E 139°38'0 0.0
2018-Jun-19 13:30N 35°24' E 139°38'0 0.1
2018-Jun-19 13:00N 35°24' E 139°38'0 0.0
2018-Jun-19 12:30N 35°24' E 139°38'0 0.1
2018-Jun-19 12:00N 35°24' E 139°38'0 0.0
2018-Jun-19 11:31N 35°24' E 139°38'0 0.2
2018-Jun-19 11:00N 35°24' E 139°38'0 0.1
2018-Jun-19 10:30N 35°24' E 139°38'0 0.1
2018-Jun-19 10:01N 35°24' E 139°38'0 0.1
2018-Jun-19 09:30N 35°24' E 139°38'0 0.1
2018-Jun-19 09:00N 35°24' E 139°38'0 0.1
2018-Jun-19 08:31N 35°24' E 139°38'0 0.8
2018-Jun-19 08:01N 35°24' E 139°38'1 2.7
2018-Jun-19 07:30N 35°23' E 139°40'0 0.0
2018-Jun-19 07:00N 35°23' E 139°40'0 0.0
2018-Jun-19 06:29N 35°23' E 139°40'0 0.0
2018-Jun-19 06:00N 35°23' E 139°40'0 0.0
2018-Jun-19 05:30N 35°23' E 139°40'4 7.8
2018-Jun-19 05:00N 35°27' E 139°41'1 2.4
2018-Jun-19 04:31N 35°28' E 139°40'2 4.3
2018-Jun-19 04:00N 35°28' E 139°43'0 0.2
2018-Jun-19 03:30N 35°28' E 139°43'0 0.4
2018-Jun-19 03:01N 35°28' E 139°43'0 0.2
2018-Jun-19 02:31N 35°28' E 139°43'0 0.2
2018-Jun-19 02:01N 35°28' E 139°43'0 0.2
2018-Jun-19 01:31N 35°28' E 139°43'0 0.2
2018-Jun-19 01:00N 35°28' E 139°43'0 0.4
2018-Jun-19 00:30N 35°28' E 139°43'0 0.1
2018-Jun-19 00:00N 35°28' E 139°43'0 0.0
2018-Jun-18 23:30N 35°28' E 139°43'0 0.1
2018-Jun-18 23:00N 35°28' E 139°43'0 0.2
2018-Jun-18 22:31N 35°28' E 139°43'0 0.5
2018-Jun-18 22:00N 35°28' E 139°43'0 0.5
2018-Jun-18 21:30N 35°28' E 139°43'0 0.6
2018-Jun-18 21:01N 35°28' E 139°43'0 0.3
2018-Jun-18 20:30N 35°28' E 139°43'0 0.5
2018-Jun-18 20:00N 35°28' E 139°43'0 0.1
2018-Jun-18 19:30N 35°28' E 139°43'0 0.2
2018-Jun-18 19:01N 35°28' E 139°43'0 0.0
2018-Jun-18 18:29N 35°28' E 139°43'0 0.1
2018-Jun-18 18:01N 35°28' E 139°43'0 0.1
2018-Jun-18 17:31N 35°28' E 139°43'0 0.1
2018-Jun-18 17:00N 35°28' E 139°43'0 0.2
2018-Jun-18 16:31N 35°28' E 139°43'0 0.1
2018-Jun-18 15:59N 35°28' E 139°43'0 0.2
2018-Jun-18 15:31N 35°28' E 139°43'0 0.3
2018-Jun-18 15:00N 35°28' E 139°43'0 0.1
2018-Jun-18 14:30N 35°28' E 139°43'0 0.1
2018-Jun-18 14:01N 35°28' E 139°43'0 0.1
2018-Jun-18 13:30N 35°28' E 139°43'0 0.2
2018-Jun-18 13:01N 35°28' E 139°43'0 0.1
2018-Jun-18 12:30N 35°28' E 139°43'0 0.3
2018-Jun-18 12:00N 35°28' E 139°43'0 0.1
2018-Jun-18 11:30N 35°28' E 139°43'0 0.3
2018-Jun-18 11:01N 35°28' E 139°43'0 0.1
2018-Jun-18 10:30N 35°28' E 139°43'0 0.2
2018-Jun-18 10:00N 35°28' E 139°43'0 0.4
2018-Jun-18 09:31N 35°28' E 139°43'0 0.1
2018-Jun-18 09:00N 35°28' E 139°43'0 0.4
2018-Jun-18 08:31N 35°28' E 139°43'0 0.2
2018-Jun-18 08:01N 35°28' E 139°43'0 0.1
2018-Jun-18 07:30N 35°28' E 139°43'0 0.1
2018-Jun-18 07:00N 35°28' E 139°43'0 0.1
2018-Jun-18 06:30N 35°28' E 139°43'0 0.0
2018-Jun-18 06:01N 35°28' E 139°43'0 0.1
2018-Jun-18 05:31N 35°28' E 139°43'0 0.1
2018-Jun-18 05:00N 35°28' E 139°43'0 0.2
2018-Jun-18 04:30N 35°28' E 139°43'0 0.3
2018-Jun-18 04:01N 35°28' E 139°43'0 0.1
2018-Jun-18 03:31N 35°28' E 139°43'0 0.1
2018-Jun-18 03:01N 35°28' E 139°43'0 0.6
2018-Jun-18 02:30N 35°28' E 139°43'0 0.1
2018-Jun-18 02:00N 35°28' E 139°43'0 0.2
2018-Jun-18 01:30N 35°28' E 139°43'0 0.8
2018-Jun-18 00:59N 35°28' E 139°43'0 0.1
2018-Jun-18 00:31N 35°27' E 139°43'0 0.1
2018-Jun-18 00:00N 35°28' E 139°43'1 2.3
2018-Jun-17 23:30N 35°28' E 139°44'0 0.4
2018-Jun-17 23:00N 35°28' E 139°44'0 0.4
2018-Jun-17 22:30N 35°28' E 139°44'0 0.4
2018-Jun-17 22:00N 35°28' E 139°44'0 0.6
2018-Jun-17 21:30N 35°28' E 139°44'0 0.2
2018-Jun-17 21:00N 35°28' E 139°44'0 0.0
2018-Jun-17 20:30N 35°28' E 139°44'0 0.1
2018-Jun-17 20:00N 35°28' E 139°44'0 0.3
2018-Jun-17 19:31N 35°28' E 139°44'0 0.0
2018-Jun-17 19:00N 35°28' E 139°44'0 0.1
2018-Jun-17 18:30N 35°28' E 139°44'0 0.0
2018-Jun-17 18:00N 35°28' E 139°44'0 0.0
2018-Jun-17 17:30N 35°28' E 139°44'0 0.0
2018-Jun-17 17:01N 35°28' E 139°44'0 0.0
2018-Jun-17 16:30N 35°28' E 139°44'0 0.0
2018-Jun-17 16:01N 35°28' E 139°44'0 0.0
2018-Jun-17 15:31N 35°28' E 139°44'0 0.0
2018-Jun-17 15:01N 35°28' E 139°44'0 0.0
2018-Jun-17 14:30N 35°28' E 139°44'0 0.0
2018-Jun-17 14:00N 35°28' E 139°44'0 0.0
2018-Jun-17 13:28N 35°28' E 139°44'0 0.0
2018-Jun-17 13:00N 35°28' E 139°44'0 0.5
2018-Jun-17 12:31N 35°28' E 139°44'0 0.0
2018-Jun-17 12:01N 35°28' E 139°44'0 0.5
2018-Jun-17 11:30N 35°28' E 139°45'0 0.3
2018-Jun-17 11:00N 35°28' E 139°45'0 0.1
2018-Jun-17 10:30N 35°28' E 139°45'0 0.2
2018-Jun-17 10:00N 35°28' E 139°45'0 0.7
2018-Jun-17 09:30N 35°28' E 139°44'0 0.1
2018-Jun-17 09:01N 35°28' E 139°44'0 0.7
2018-Jun-17 08:30N 35°28' E 139°45'0 0.6
2018-Jun-17 08:00N 35°28' E 139°44'0 0.0
2018-Jun-17 07:31N 35°28' E 139°44'0 0.5
2018-Jun-17 07:01N 35°28' E 139°45'0 0.2
2018-Jun-17 06:30N 35°28' E 139°44'0 0.5
2018-Jun-17 06:00N 35°28' E 139°45'0 0.0
2018-Jun-17 05:30N 35°28' E 139°45'0 0.6
2018-Jun-17 05:00N 35°28' E 139°44'0 0.4
2018-Jun-17 04:30N 35°28' E 139°44'0 0.3
2018-Jun-17 04:00N 35°28' E 139°44'0 0.2
2018-Jun-17 03:30N 35°28' E 139°44'0 0.1
2018-Jun-17 03:01N 35°28' E 139°44'0 0.3
2018-Jun-17 02:31N 35°28' E 139°44'0 0.1
2018-Jun-17 02:00N 35°28' E 139°44'0 0.0
2018-Jun-17 01:30N 35°28' E 139°44'2 4.3
2018-Jun-17 01:00N 35°29' E 139°47'7 0.3
2018-Jun-16 00:35N 35°29' E 139°56'312.9
2018-Jun-16 00:22N 35°28' E 139°52'412.3
2018-Jun-16 00:01N 35°28' E 139°47'0 0.6
2018-Jun-15 23:30N 35°27' E 139°47'0 0.2
2018-Jun-15 23:00N 35°27' E 139°47'0 0.4
2018-Jun-15 22:31N 35°28' E 139°47'0 0.3
2018-Jun-15 22:00N 35°27' E 139°47'0 0.2
2018-Jun-15 21:30N 35°28' E 139°47'0 0.2
2018-Jun-15 21:00N 35°27' E 139°47'0 0.3
2018-Jun-15 20:31N 35°28' E 139°47'0 0.7
2018-Jun-15 20:00N 35°28' E 139°46'0 0.0
2018-Jun-15 19:30N 35°28' E 139°46'0 0.0
2018-Jun-15 19:00N 35°28' E 139°46'0 0.0
2018-Jun-15 18:30N 35°28' E 139°46'0 0.0
2018-Jun-15 18:00N 35°28' E 139°46'0 0.0
2018-Jun-15 17:30N 35°28' E 139°46'0 0.0
2018-Jun-15 17:00N 35°28' E 139°46'0 0.0
2018-Jun-15 16:29N 35°28' E 139°46'0 0.0
2018-Jun-15 16:00N 35°28' E 139°46'0 0.1
2018-Jun-15 15:30N 35°28' E 139°46'0 0.0
2018-Jun-15 14:59N 35°28' E 139°46'0 0.0
2018-Jun-15 14:27N 35°28' E 139°46'0 0.0
2018-Jun-15 13:56N 35°28' E 139°46'0 0.1
2018-Jun-15 13:30N 35°28' E 139°46'0 0.0
2018-Jun-15 13:00N 35°28' E 139°46'0 0.0
2018-Jun-15 12:30N 35°28' E 139°46'0 0.0
2018-Jun-15 12:00N 35°28' E 139°46'0 0.0
2018-Jun-15 11:30N 35°28' E 139°46'0 0.0
2018-Jun-15 11:00N 35°28' E 139°46'0 0.0
2018-Jun-15 10:30N 35°28' E 139°46'0 0.1
2018-Jun-15 10:00N 35°28' E 139°46'0 0.9
2018-Jun-15 09:30N 35°27' E 139°47'0 0.3
2018-Jun-15 09:00N 35°27' E 139°47'0 0.3
2018-Jun-15 08:30N 35°27' E 139°47'0 0.2
2018-Jun-15 08:01N 35°27' E 139°47'0 0.2
2018-Jun-15 07:30N 35°27' E 139°47'0 0.7
2018-Jun-15 07:00N 35°28' E 139°47'0 0.4
2018-Jun-15 06:30N 35°28' E 139°47'1 2.6
2018-Jun-15 06:00N 35°27' E 139°46'611.2
2018-Jun-15 05:30N 35°24' E 139°40'2 3.1
2018-Jun-15 05:00N 35°24' E 139°38'0 0.8
2018-Jun-15 04:30N 35°24' E 139°38'0 0.5
2018-Jun-15 04:01N 35°24' E 139°38'0 0.3
2018-Jun-15 03:30N 35°24' E 139°38'0 0.1
2018-Jun-15 03:00N 35°24' E 139°38'0 0.1
2018-Jun-15 02:30N 35°24' E 139°38'0 0.1
2018-Jun-15 02:01N 35°24' E 139°38'0 0.1
2018-Jun-15 01:30N 35°24' E 139°38'0 0.1
2018-Jun-15 01:00N 35°24' E 139°38'3 6.2
2018-Jun-15 00:31N 35°24' E 139°42'5 9.3
2018-Jun-15 00:00N 35°28' E 139°44'0 0.3
2018-Jun-14 23:30N 35°28' E 139°44'0 0.1
2018-Jun-14 23:00N 35°28' E 139°44'0 0.2
2018-Jun-14 22:31N 35°28' E 139°44'0 0.8
2018-Jun-14 22:00N 35°28' E 139°45'0 0.5
2018-Jun-14 21:30N 35°28' E 139°44'0 0.2
2018-Jun-14 21:01N 35°28' E 139°44'0 0.2
2018-Jun-14 20:30N 35°28' E 139°44'0 0.3
2018-Jun-14 20:00N 35°28' E 139°44'0 0.3
2018-Jun-14 19:30N 35°28' E 139°45'0 0.0
2018-Jun-14 19:00N 35°28' E 139°45'0 0.0
2018-Jun-14 18:20N 35°28' E 139°45'0 0.0
2018-Jun-14 18:00N 35°28' E 139°45'0 0.0
2018-Jun-14 17:30N 35°28' E 139°45'0 0.0
2018-Jun-14 16:58N 35°28' E 139°45'0 0.0
2018-Jun-14 16:29N 35°28' E 139°45'0 0.0
2018-Jun-14 16:00N 35°28' E 139°45'0 0.0
2018-Jun-14 15:30N 35°28' E 139°45'0 0.0
2018-Jun-14 15:00N 35°28' E 139°45'0 0.0
2018-Jun-14 14:30N 35°28' E 139°45'0 0.0
2018-Jun-14 14:00N 35°28' E 139°45'0 0.0
2018-Jun-14 13:30N 35°28' E 139°45'0 0.0
2018-Jun-14 13:00N 35°28' E 139°45'0 0.2
2018-Jun-14 12:30N 35°28' E 139°44'0 0.5
2018-Jun-14 12:00N 35°28' E 139°45'0 0.7
2018-Jun-14 11:31N 35°28' E 139°44'0 0.1
2018-Jun-14 11:00N 35°28' E 139°44'0 0.1
2018-Jun-14 10:30N 35°28' E 139°44'0 0.1
2018-Jun-14 10:00N 35°28' E 139°44'0 0.3
2018-Jun-14 09:30N 35°28' E 139°44'0 0.0
2018-Jun-14 09:00N 35°28' E 139°44'0 0.0
2018-Jun-14 08:29N 35°28' E 139°44'0 0.0
2018-Jun-14 08:00N 35°28' E 139°44'0 0.4
2018-Jun-14 07:30N 35°28' E 139°45'0 0.0
2018-Jun-14 07:00N 35°28' E 139°45'0 0.3
2018-Jun-14 06:30N 35°28' E 139°44'0 0.8
2018-Jun-14 06:00N 35°28' E 139°44'0 0.4
2018-Jun-14 05:30N 35°28' E 139°44'0 0.2
2018-Jun-14 05:00N 35°28' E 139°44'0 0.5
2018-Jun-14 04:30N 35°28' E 139°44'0 0.4
2018-Jun-14 04:00N 35°28' E 139°44'0 0.2
2018-Jun-14 03:30N 35°28' E 139°44'0 0.1
2018-Jun-14 03:00N 35°28' E 139°44'0 0.1
2018-Jun-14 02:30N 35°28' E 139°44'2 4.1
2018-Jun-14 02:01N 35°26' E 139°45'3 6.7
2018-Jun-14 01:30N 35°23' E 139°45'611.2
2018-Jun-14 01:00N 35°17' E 139°45'8 9.4
2018-Jun-14 00:12N 35°10' E 139°47'1 2.6
2018-Jun-13 23:56N 35°10' E 139°47'5 9.1
2018-Jun-13 23:26N 35°15' E 139°45'614.2
2018-Jun-13 23:01N 35°20' E 139°42'611.2
2018-Jun-13 22:30N 35°24' E 139°46'712.9
2018-Jun-13 22:00N 35°27' E 139°53'1 0.1
2018-Jun-13 07:12N 35°29' E 139°53'313.6
2018-Jun-13 06:57N 35°28' E 139°49'613.5
2018-Jun-13 06:30N 35°27' E 139°42'3 5.4
2018-Jun-13 06:01N 35°29' E 139°40'0 0.0
2018-Jun-13 05:31N 35°29' E 139°40'2 3.1
2018-Jun-13 05:01N 35°27' E 139°40'4 8.1
2018-Jun-13 04:30N 35°23' E 139°40'0 0.0
2018-Jun-13 03:58N 35°23' E 139°40'0 0.0
2018-Jun-13 03:28N 35°23' E 139°40'0 0.0
2018-Jun-13 02:58N 35°23' E 139°40'0 0.0
2018-Jun-13 02:28N 35°23' E 139°40'0 0.0
2018-Jun-13 01:58N 35°23' E 139°40'0 0.0
2018-Jun-13 01:25N 35°23' E 139°40'0 0.0
2018-Jun-13 00:58N 35°23' E 139°40'0 0.0
2018-Jun-13 00:28N 35°23' E 139°40'0 0.0
2018-Jun-12 23:59N 35°23' E 139°40'1 2.2
2018-Jun-12 23:29N 35°24' E 139°38'0 0.1
2018-Jun-12 23:00N 35°24' E 139°38'1 2.7
2018-Jun-12 22:30N 35°24' E 139°40'0 1.0
2018-Jun-12 22:00N 35°23' E 139°40'0 0.9
2018-Jun-12 21:30N 35°23' E 139°40'713.3
2018-Jun-12 21:00N 35°25' E 139°48'4 0.3
2018-Jun-12 08:03N 35°28' E 139°51'113.7
2018-Jun-12 08:00N 35°28' E 139°50'713.5
2018-Jun-12 07:30N 35°28' E 139°42'0 0.2
2018-Jun-12 07:00N 35°28' E 139°42'1 1.1
2018-Jun-12 06:28N 35°28' E 139°42'0 0.0
2018-Jun-12 05:58N 35°28' E 139°42'0 0.0
2018-Jun-12 05:28N 35°28' E 139°42'0 0.1
2018-Jun-12 04:58N 35°28' E 139°42'0 0.0
2018-Jun-12 04:28N 35°27' E 139°42'0 0.0
2018-Jun-12 03:58N 35°27' E 139°42'0 0.0
2018-Jun-12 03:28N 35°27' E 139°42'0 0.0
2018-Jun-12 02:52N 35°27' E 139°42'0 0.0
2018-Jun-12 02:22N 35°27' E 139°42'0 0.0
2018-Jun-12 01:58N 35°27' E 139°42'0 0.0
2018-Jun-12 01:28N 35°27' E 139°42'0 0.0
2018-Jun-12 00:58N 35°27' E 139°42'0 0.0
2018-Jun-12 00:28N 35°28' E 139°42'3 6.0
2018-Jun-12 00:01N 35°25' E 139°42'2 4.4
2018-Jun-11 23:30N 35°24' E 139°39'1 2.0
2018-Jun-11 23:00N 35°24' E 139°38'0 0.2
2018-Jun-11 22:30N 35°23' E 139°38'0 0.0
2018-Jun-11 22:01N 35°23' E 139°38'2 4.4
2018-Jun-11 21:30N 35°23' E 139°41'712.2
2018-Jun-11 20:57N 35°25' E 139°49'8 0.5
2018-Jun-11 05:55N 35°28' E 139°58'0 0.2
2018-Jun-11 05:01N 35°29' E 139°58'0 0.1
2018-Jun-11 04:29N 35°29' E 139°58'0 0.1
2018-Jun-11 03:59N 35°29' E 139°58'  
Track history (hours):
 
Tides and Currents Weather Stations Pressure Air Temp Water Temp Dewpoint Dewpoint Depression Visibility Wind Speed Wind Dir Waves Ship Positions

Ise Maru

Last reported at 2018-Jun-21 02:28 UTC. Time now 2018-Jun-21 02:40 UTC.
Position N 35°27' E 139°42'.

Length 34 m; draft 3.5 m.

Type: Tug. MMSI: 431101046.

Date/timePositionNaut miles runAvg speedWind from/ knotsBaromVisibWave heightAir tempDewpointWater temp
2018-Jun-21 02:28N 35°27' E 139°42'4 9.2
2018-Jun-21 02:00N 35°23' E 139°41'2 3.9
2018-Jun-21 01:30N 35°25' E 139°39'0 0.6
2018-Jun-21 01:01N 35°24' E 139°39'2 4.1
2018-Jun-21 00:30N 35°23' E 139°41'1 1.3
2018-Jun-21 00:00N 35°23' E 139°40'3 5.5
2018-Jun-20 23:30N 35°23' E 139°44'612.5
2018-Jun-20 23:00N 35°26' E 139°51'3 0.2
2018-Jun-20 06:51N 35°24' E 139°48'412.7
2018-Jun-20 06:30N 35°23' E 139°43'3 5.7
2018-Jun-20 06:00N 35°24' E 139°40'1 1.6
2018-Jun-20 05:30N 35°24' E 139°39'0 1.0
2018-Jun-20 05:00N 35°24' E 139°38'0 0.8
2018-Jun-20 04:30N 35°24' E 139°38'0 0.2
2018-Jun-20 04:00N 35°24' E 139°38'0 0.1
2018-Jun-20 03:30N 35°24' E 139°38'0 0.1
2018-Jun-20 03:00N 35°24' E 139°38'0 0.1
2018-Jun-20 02:30N 35°24' E 139°38'0 0.2
2018-Jun-20 02:00N 35°24' E 139°38'0 0.0
2018-Jun-20 01:30N 35°24' E 139°38'0 0.1
2018-Jun-20 01:00N 35°24' E 139°38'0 0.0
2018-Jun-20 00:31N 35°24' E 139°38'0 0.0
2018-Jun-20 00:00N 35°24' E 139°38'0 0.1
2018-Jun-19 23:30N 35°24' E 139°38'0 0.0
2018-Jun-19 23:00N 35°24' E 139°38'0 0.1
2018-Jun-19 22:30N 35°24' E 139°38'0 0.2
2018-Jun-19 22:00N 35°24' E 139°38'0 0.1
2018-Jun-19 21:31N 35°24' E 139°38'0 0.2
2018-Jun-19 21:00N 35°24' E 139°38'0 0.1
2018-Jun-19 20:30N 35°24' E 139°38'0 0.2
2018-Jun-19 20:00N 35°24' E 139°38'0 0.1
2018-Jun-19 19:30N 35°24' E 139°38'0 0.0
2018-Jun-19 19:00N 35°24' E 139°38'0 0.1
2018-Jun-19 18:30N 35°24' E 139°38'0 0.1
2018-Jun-19 17:59N 35°24' E 139°38'0 0.1
2018-Jun-19 17:30N 35°24' E 139°38'0 0.1
2018-Jun-19 17:00N 35°24' E 139°38'0 0.1
2018-Jun-19 16:30N 35°24' E 139°38'0 0.2
2018-Jun-19 16:00N 35°24' E 139°38'0 0.1
2018-Jun-19 15:30N 35°24' E 139°38'0 0.1
2018-Jun-19 15:00N 35°24' E 139°38'0 0.1
2018-Jun-19 14:30N 35°24' E 139°38'0 0.1
2018-Jun-19 14:00N 35°24' E 139°38'0 0.0
2018-Jun-19 13:30N 35°24' E 139°38'0 0.1
2018-Jun-19 13:00N 35°24' E 139°38'0 0.0
2018-Jun-19 12:30N 35°24' E 139°38'0 0.1
2018-Jun-19 12:00N 35°24' E 139°38'0 0.0
2018-Jun-19 11:31N 35°24' E 139°38'0 0.2
2018-Jun-19 11:00N 35°24' E 139°38'0 0.1
2018-Jun-19 10:30N 35°24' E 139°38'0 0.1
2018-Jun-19 10:01N 35°24' E 139°38'0 0.1
2018-Jun-19 09:30N 35°24' E 139°38'0 0.1
2018-Jun-19 09:00N 35°24' E 139°38'0 0.1
2018-Jun-19 08:31N 35°24' E 139°38'0 0.8
2018-Jun-19 08:01N 35°24' E 139°38'1 2.7
2018-Jun-19 07:30N 35°23' E 139°40'0 0.0
2018-Jun-19 07:00N 35°23' E 139°40'0 0.0
2018-Jun-19 06:29N 35°23' E 139°40'0 0.0
2018-Jun-19 06:00N 35°23' E 139°40'0 0.0
2018-Jun-19 05:30N 35°23' E 139°40'4 7.8
2018-Jun-19 05:00N 35°27' E 139°41'1 2.4
2018-Jun-19 04:31N 35°28' E 139°40'2 4.3
2018-Jun-19 04:00N 35°28' E 139°43'0 0.2
2018-Jun-19 03:30N 35°28' E 139°43'0 0.4
2018-Jun-19 03:01N 35°28' E 139°43'0 0.2
2018-Jun-19 02:31N 35°28' E 139°43'0 0.2
2018-Jun-19 02:01N 35°28' E 139°43'0 0.2
2018-Jun-19 01:31N 35°28' E 139°43'0 0.2
2018-Jun-19 01:00N 35°28' E 139°43'0 0.4
2018-Jun-19 00:30N 35°28' E 139°43'0 0.1
2018-Jun-19 00:00N 35°28' E 139°43'0 0.0
2018-Jun-18 23:30N 35°28' E 139°43'0 0.1
2018-Jun-18 23:00N 35°28' E 139°43'0 0.2
2018-Jun-18 22:31N 35°28' E 139°43'0 0.5
2018-Jun-18 22:00N 35°28' E 139°43'0 0.5
2018-Jun-18 21:30N 35°28' E 139°43'0 0.6
2018-Jun-18 21:01N 35°28' E 139°43'0 0.3
2018-Jun-18 20:30N 35°28' E 139°43'0 0.5
2018-Jun-18 20:00N 35°28' E 139°43'0 0.1
2018-Jun-18 19:30N 35°28' E 139°43'0 0.2
2018-Jun-18 19:01N 35°28' E 139°43'0 0.0
2018-Jun-18 18:29N 35°28' E 139°43'0 0.1
2018-Jun-18 18:01N 35°28' E 139°43'0 0.1
2018-Jun-18 17:31N 35°28' E 139°43'0 0.1
2018-Jun-18 17:00N 35°28' E 139°43'0 0.2
2018-Jun-18 16:31N 35°28' E 139°43'0 0.1
2018-Jun-18 15:59N 35°28' E 139°43'0 0.2
2018-Jun-18 15:31N 35°28' E 139°43'0 0.3
2018-Jun-18 15:00N 35°28' E 139°43'0 0.1
2018-Jun-18 14:30N 35°28' E 139°43'0 0.1
2018-Jun-18 14:01N 35°28' E 139°43'0 0.1
2018-Jun-18 13:30N 35°28' E 139°43'0 0.2
2018-Jun-18 13:01N 35°28' E 139°43'0 0.1
2018-Jun-18 12:30N 35°28' E 139°43'0 0.3
2018-Jun-18 12:00N 35°28' E 139°43'0 0.1
2018-Jun-18 11:30N 35°28' E 139°43'0 0.3
2018-Jun-18 11:01N 35°28' E 139°43'0 0.1
2018-Jun-18 10:30N 35°28' E 139°43'0 0.2
2018-Jun-18 10:00N 35°28' E 139°43'0 0.4
2018-Jun-18 09:31N 35°28' E 139°43'0 0.1
2018-Jun-18 09:00N 35°28' E 139°43'0 0.4
2018-Jun-18 08:31N 35°28' E 139°43'0 0.2
2018-Jun-18 08:01N 35°28' E 139°43'0 0.1
2018-Jun-18 07:30N 35°28' E 139°43'0 0.1
2018-Jun-18 07:00N 35°28' E 139°43'0 0.1
2018-Jun-18 06:30N 35°28' E 139°43'0 0.0
2018-Jun-18 06:01N 35°28' E 139°43'0 0.1
2018-Jun-18 05:31N 35°28' E 139°43'0 0.1
2018-Jun-18 05:00N 35°28' E 139°43'0 0.2
2018-Jun-18 04:30N 35°28' E 139°43'0 0.3
2018-Jun-18 04:01N 35°28' E 139°43'0 0.1
2018-Jun-18 03:31N 35°28' E 139°43'0 0.1
2018-Jun-18 03:01N 35°28' E 139°43'0 0.6
2018-Jun-18 02:30N 35°28' E 139°43'0 0.1
2018-Jun-18 02:00N 35°28' E 139°43'0 0.2
2018-Jun-18 01:30N 35°28' E 139°43'0 0.8
2018-Jun-18 00:59N 35°28' E 139°43'0 0.1
2018-Jun-18 00:31N 35°27' E 139°43'0 0.1
2018-Jun-18 00:00N 35°28' E 139°43'1 2.3
2018-Jun-17 23:30N 35°28' E 139°44'0 0.4
2018-Jun-17 23:00N 35°28' E 139°44'0 0.4
2018-Jun-17 22:30N 35°28' E 139°44'0 0.4
2018-Jun-17 22:00N 35°28' E 139°44'0 0.6
2018-Jun-17 21:30N 35°28' E 139°44'0 0.2
2018-Jun-17 21:00N 35°28' E 139°44'0 0.0
2018-Jun-17 20:30N 35°28' E 139°44'0 0.1
2018-Jun-17 20:00N 35°28' E 139°44'0 0.3
2018-Jun-17 19:31N 35°28' E 139°44'0 0.0
2018-Jun-17 19:00N 35°28' E 139°44'0 0.1
2018-Jun-17 18:30N 35°28' E 139°44'0 0.0
2018-Jun-17 18:00N 35°28' E 139°44'0 0.0
2018-Jun-17 17:30N 35°28' E 139°44'0 0.0
2018-Jun-17 17:01N 35°28' E 139°44'0 0.0
2018-Jun-17 16:30N 35°28' E 139°44'0 0.0
2018-Jun-17 16:01N 35°28' E 139°44'0 0.0
2018-Jun-17 15:31N 35°28' E 139°44'0 0.0
2018-Jun-17 15:01N 35°28' E 139°44'0 0.0
2018-Jun-17 14:30N 35°28' E 139°44'0 0.0
2018-Jun-17 14:00N 35°28' E 139°44'0 0.0
2018-Jun-17 13:28N 35°28' E 139°44'0 0.0
2018-Jun-17 13:00N 35°28' E 139°44'0 0.5
2018-Jun-17 12:31N 35°28' E 139°44'0 0.0
2018-Jun-17 12:01N 35°28' E 139°44'0 0.5
2018-Jun-17 11:30N 35°28' E 139°45'0 0.3
2018-Jun-17 11:00N 35°28' E 139°45'0 0.1
2018-Jun-17 10:30N 35°28' E 139°45'0 0.2
2018-Jun-17 10:00N 35°28' E 139°45'0 0.7
2018-Jun-17 09:30N 35°28' E 139°44'0 0.1
2018-Jun-17 09:01N 35°28' E 139°44'0 0.7
2018-Jun-17 08:30N 35°28' E 139°45'0 0.6
2018-Jun-17 08:00N 35°28' E 139°44'0 0.0
2018-Jun-17 07:31N 35°28' E 139°44'0 0.5
2018-Jun-17 07:01N 35°28' E 139°45'0 0.2
2018-Jun-17 06:30N 35°28' E 139°44'0 0.5
2018-Jun-17 06:00N 35°28' E 139°45'0 0.0
2018-Jun-17 05:30N 35°28' E 139°45'0 0.6
2018-Jun-17 05:00N 35°28' E 139°44'0 0.4
2018-Jun-17 04:30N 35°28' E 139°44'0 0.3
2018-Jun-17 04:00N 35°28' E 139°44'0 0.2
2018-Jun-17 03:30N 35°28' E 139°44'0 0.1
2018-Jun-17 03:01N 35°28' E 139°44'0 0.3
2018-Jun-17 02:31N 35°28' E 139°44'0 0.1
2018-Jun-17 02:00N 35°28' E 139°44'0 0.0
2018-Jun-17 01:30N 35°28' E 139°44'2 4.3
2018-Jun-17 01:00N 35°29' E 139°47'7 0.3
2018-Jun-16 00:35N 35°29' E 139°56'312.9
2018-Jun-16 00:22N 35°28' E 139°52'412.3
2018-Jun-16 00:01N 35°28' E 139°47'0 0.6
2018-Jun-15 23:30N 35°27' E 139°47'0 0.2
2018-Jun-15 23:00N 35°27' E 139°47'0 0.4
2018-Jun-15 22:31N 35°28' E 139°47'0 0.3
2018-Jun-15 22:00N 35°27' E 139°47'0 0.2
2018-Jun-15 21:30N 35°28' E 139°47'0 0.2
2018-Jun-15 21:00N 35°27' E 139°47'0 0.3
2018-Jun-15 20:31N 35°28' E 139°47'0 0.7
2018-Jun-15 20:00N 35°28' E 139°46'0 0.0
2018-Jun-15 19:30N 35°28' E 139°46'0 0.0
2018-Jun-15 19:00N 35°28' E 139°46'0 0.0
2018-Jun-15 18:30N 35°28' E 139°46'0 0.0
2018-Jun-15 18:00N 35°28' E 139°46'0 0.0
2018-Jun-15 17:30N 35°28' E 139°46'0 0.0
2018-Jun-15 17:00N 35°28' E 139°46'0 0.0
2018-Jun-15 16:29N 35°28' E 139°46'0 0.0
2018-Jun-15 16:00N 35°28' E 139°46'0 0.1
2018-Jun-15 15:30N 35°28' E 139°46'0 0.0
2018-Jun-15 14:59N 35°28' E 139°46'0 0.0
2018-Jun-15 14:27N 35°28' E 139°46'0 0.0
2018-Jun-15 13:56N 35°28' E 139°46'0 0.1
2018-Jun-15 13:30N 35°28' E 139°46'0 0.0
2018-Jun-15 13:00N 35°28' E 139°46'0 0.0
2018-Jun-15 12:30N 35°28' E 139°46'0 0.0
2018-Jun-15 12:00N 35°28' E 139°46'0 0.0
2018-Jun-15 11:30N 35°28' E 139°46'0 0.0
2018-Jun-15 11:00N 35°28' E 139°46'0 0.0
2018-Jun-15 10:30N 35°28' E 139°46'0 0.1
2018-Jun-15 10:00N 35°28' E 139°46'0 0.9
2018-Jun-15 09:30N 35°27' E 139°47'0 0.3
2018-Jun-15 09:00N 35°27' E 139°47'0 0.3
2018-Jun-15 08:30N 35°27' E 139°47'0 0.2
2018-Jun-15 08:01N 35°27' E 139°47'0 0.2
2018-Jun-15 07:30N 35°27' E 139°47'0 0.7
2018-Jun-15 07:00N 35°28' E 139°47'0 0.4
2018-Jun-15 06:30N 35°28' E 139°47'1 2.6
2018-Jun-15 06:00N 35°27' E 139°46'611.2
2018-Jun-15 05:30N 35°24' E 139°40'2 3.1
2018-Jun-15 05:00N 35°24' E 139°38'0 0.8
2018-Jun-15 04:30N 35°24' E 139°38'0 0.5
2018-Jun-15 04:01N 35°24' E 139°38'0 0.3
2018-Jun-15 03:30N 35°24' E 139°38'0 0.1
2018-Jun-15 03:00N 35°24' E 139°38'0 0.1
2018-Jun-15 02:30N 35°24' E 139°38'0 0.1
2018-Jun-15 02:01N 35°24' E 139°38'0 0.1
2018-Jun-15 01:30N 35°24' E 139°38'0 0.1
2018-Jun-15 01:00N 35°24' E 139°38'3 6.2
2018-Jun-15 00:31N 35°24' E 139°42'5 9.3
2018-Jun-15 00:00N 35°28' E 139°44'0 0.3
2018-Jun-14 23:30N 35°28' E 139°44'0 0.1
2018-Jun-14 23:00N 35°28' E 139°44'0 0.2
2018-Jun-14 22:31N 35°28' E 139°44'0 0.8
2018-Jun-14 22:00N 35°28' E 139°45'0 0.5
2018-Jun-14 21:30N 35°28' E 139°44'0 0.2
2018-Jun-14 21:01N 35°28' E 139°44'0 0.2
2018-Jun-14 20:30N 35°28' E 139°44'0 0.3
2018-Jun-14 20:00N 35°28' E 139°44'0 0.3
2018-Jun-14 19:30N 35°28' E 139°45'0 0.0
2018-Jun-14 19:00N 35°28' E 139°45'0 0.0
2018-Jun-14 18:20N 35°28' E 139°45'0 0.0
2018-Jun-14 18:00N 35°28' E 139°45'0 0.0
2018-Jun-14 17:30N 35°28' E 139°45'0 0.0
2018-Jun-14 16:58N 35°28' E 139°45'0 0.0
2018-Jun-14 16:29N 35°28' E 139°45'0 0.0
2018-Jun-14 16:00N 35°28' E 139°45'0 0.0
2018-Jun-14 15:30N 35°28' E 139°45'0 0.0
2018-Jun-14 15:00N 35°28' E 139°45'0 0.0
2018-Jun-14 14:30N 35°28' E 139°45'0 0.0
2018-Jun-14 14:00N 35°28' E 139°45'0 0.0
2018-Jun-14 13:30N 35°28' E 139°45'0 0.0
2018-Jun-14 13:00N 35°28' E 139°45'0 0.2
2018-Jun-14 12:30N 35°28' E 139°44'0 0.5
2018-Jun-14 12:00N 35°28' E 139°45'0 0.7
2018-Jun-14 11:31N 35°28' E 139°44'0 0.1
2018-Jun-14 11:00N 35°28' E 139°44'0 0.1
2018-Jun-14 10:30N 35°28' E 139°44'0 0.1
2018-Jun-14 10:00N 35°28' E 139°44'0 0.3
2018-Jun-14 09:30N 35°28' E 139°44'0 0.0
2018-Jun-14 09:00N 35°28' E 139°44'0 0.0
2018-Jun-14 08:29N 35°28' E 139°44'0 0.0
2018-Jun-14 08:00N 35°28' E 139°44'0 0.4
2018-Jun-14 07:30N 35°28' E 139°45'0 0.0
2018-Jun-14 07:00N 35°28' E 139°45'0 0.3
2018-Jun-14 06:30N 35°28' E 139°44'0 0.8
2018-Jun-14 06:00N 35°28' E 139°44'0 0.4
2018-Jun-14 05:30N 35°28' E 139°44'0 0.2
2018-Jun-14 05:00N 35°28' E 139°44'0 0.5
2018-Jun-14 04:30N 35°28' E 139°44'0 0.4
2018-Jun-14 04:00N 35°28' E 139°44'0 0.2
2018-Jun-14 03:30N 35°28' E 139°44'0 0.1
2018-Jun-14 03:00N 35°28' E 139°44'0 0.1
2018-Jun-14 02:30N 35°28' E 139°44'2 4.1
2018-Jun-14 02:01N 35°26' E 139°45'3 6.7
2018-Jun-14 01:30N 35°23' E 139°45'611.2
2018-Jun-14 01:00N 35°17' E 139°45'8 9.4
2018-Jun-14 00:12N 35°10' E 139°47'1 2.6
2018-Jun-13 23:56N 35°10' E 139°47'5 9.1
2018-Jun-13 23:26N 35°15' E 139°45'614.2
2018-Jun-13 23:01N 35°20' E 139°42'611.2
2018-Jun-13 22:30N 35°24' E 139°46'712.9
2018-Jun-13 22:00N 35°27' E 139°53'1 0.1
2018-Jun-13 07:12N 35°29' E 139°53'313.6
2018-Jun-13 06:57N 35°28' E 139°49'613.5
2018-Jun-13 06:30N 35°27' E 139°42'3 5.4
2018-Jun-13 06:01N 35°29' E 139°40'0 0.0
2018-Jun-13 05:31N 35°29' E 139°40'2 3.1
2018-Jun-13 05:01N 35°27' E 139°40'4 8.1
2018-Jun-13 04:30N 35°23' E 139°40'0 0.0
2018-Jun-13 03:58N 35°23' E 139°40'0 0.0
2018-Jun-13 03:28N 35°23' E 139°40'0 0.0
2018-Jun-13 02:58N 35°23' E 139°40'0 0.0
2018-Jun-13 02:28N 35°23' E 139°40'0 0.0
2018-Jun-13 01:58N 35°23' E 139°40'0 0.0
2018-Jun-13 01:25N 35°23' E 139°40'0 0.0
2018-Jun-13 00:58N 35°23' E 139°40'0 0.0
2018-Jun-13 00:28N 35°23' E 139°40'0 0.0
2018-Jun-12 23:59N 35°23' E 139°40'1 2.2
2018-Jun-12 23:29N 35°24' E 139°38'0 0.1
2018-Jun-12 23:00N 35°24' E 139°38'1 2.7
2018-Jun-12 22:30N 35°24' E 139°40'0 1.0
2018-Jun-12 22:00N 35°23' E 139°40'0 0.9
2018-Jun-12 21:30N 35°23' E 139°40'713.3
2018-Jun-12 21:00N 35°25' E 139°48'4 0.3
2018-Jun-12 08:03N 35°28' E 139°51'113.7
2018-Jun-12 08:00N 35°28' E 139°50'713.5
2018-Jun-12 07:30N 35°28' E 139°42'0 0.2
2018-Jun-12 07:00N 35°28' E 139°42'1 1.1
2018-Jun-12 06:28N 35°28' E 139°42'0 0.0
2018-Jun-12 05:58N 35°28' E 139°42'0 0.0
2018-Jun-12 05:28N 35°28' E 139°42'0 0.1
2018-Jun-12 04:58N 35°28' E 139°42'0 0.0
2018-Jun-12 04:28N 35°27' E 139°42'0 0.0
2018-Jun-12 03:58N 35°27' E 139°42'0 0.0
2018-Jun-12 03:28N 35°27' E 139°42'0 0.0
2018-Jun-12 02:52N 35°27' E 139°42'0 0.0
2018-Jun-12 02:22N 35°27' E 139°42'0 0.0
2018-Jun-12 01:58N 35°27' E 139°42'0 0.0
2018-Jun-12 01:28N 35°27' E 139°42'0 0.0
2018-Jun-12 00:58N 35°27' E 139°42'0 0.0
2018-Jun-12 00:28N 35°28' E 139°42'3 6.0
2018-Jun-12 00:01N 35°25' E 139°42'2 4.4
2018-Jun-11 23:30N 35°24' E 139°39'1 2.0
2018-Jun-11 23:00N 35°24' E 139°38'0 0.2
2018-Jun-11 22:30N 35°23' E 139°38'0 0.0
2018-Jun-11 22:01N 35°23' E 139°38'2 4.4
2018-Jun-11 21:30N 35°23' E 139°41'712.2
2018-Jun-11 20:57N 35°25' E 139°49'8 0.5
2018-Jun-11 05:55N 35°28' E 139°58'0 0.2
2018-Jun-11 05:01N 35°29' E 139°58'0 0.1
2018-Jun-11 04:29N 35°29' E 139°58'0 0.1
2018-Jun-11 03:59N 35°29' E 139°58'  

Dump ship's entire track history